createdAt,value
2023-01-23T00:01:34.386Z,33.13
2023-01-23T00:04:01.754Z,32.50
2023-01-23T00:06:29.446Z,31.47
2023-01-23T00:08:57.099Z,32.60
2023-01-23T00:11:26.705Z,32.33
2023-01-23T00:13:54.411Z,32.63
2023-01-23T00:16:23.751Z,32.80
2023-01-23T00:18:51.857Z,32.63
2023-01-23T00:21:22.614Z,31.80
2023-01-23T00:23:54.104Z,31.87
2023-01-23T00:26:26.361Z,30.53
2023-01-23T00:28:55.249Z,32.30
2023-01-23T00:31:25.768Z,32.53
2023-01-23T00:33:58.562Z,33.33
2023-01-23T00:36:28.957Z,32.10
2023-01-23T00:38:56.417Z,32.07
2023-01-23T00:41:23.806Z,30.93
2023-01-23T00:43:52.282Z,33.57
2023-01-23T00:46:23.230Z,32.03
2023-01-23T00:48:51.054Z,32.30
2023-01-23T00:51:19.314Z,33.33
2023-01-23T00:53:46.480Z,33.30
2023-01-23T00:56:13.686Z,35.10
2023-01-23T00:58:43.513Z,31.83
2023-01-23T01:01:16.010Z,32.63
2023-01-23T01:03:45.317Z,33.53
2023-01-23T01:06:12.643Z,32.93
2023-01-23T01:08:39.931Z,32.00
2023-01-23T01:11:08.379Z,34.40
2023-01-23T01:13:35.913Z,33.83
2023-01-23T01:16:03.067Z,33.93
2023-01-23T01:18:30.376Z,31.17
2023-01-23T01:20:59.085Z,34.30
2023-01-23T01:23:26.876Z,33.37
2023-01-23T01:25:58.094Z,34.20
2023-01-23T01:28:27.232Z,32.23
2023-01-23T01:30:54.282Z,32.90
2023-01-23T01:33:21.438Z,34.93
2023-01-23T01:35:48.475Z,34.07
2023-01-23T01:38:15.433Z,35.60
2023-01-23T01:40:42.352Z,33.93
2023-01-23T01:43:19.406Z,34.43
2023-01-23T01:46:08.210Z,35.60
2023-01-23T01:48:56.682Z,36.20
2023-01-23T01:51:47.035Z,37.10
2023-01-23T01:54:17.403Z,33.40
2023-01-23T01:56:58.703Z,36.43
2023-01-23T01:59:29.878Z,35.77
2023-01-23T02:02:08.992Z,37.07
2023-01-23T02:04:41.017Z,35.53
2023-01-23T02:07:26.419Z,37.27
2023-01-23T02:09:54.786Z,36.93
2023-01-23T02:12:22.015Z,37.37
2023-01-23T02:14:50.153Z,40.67
2023-01-23T02:17:17.095Z,38.07
2023-01-23T02:20:13.079Z,40.63
2023-01-23T02:22:58.549Z,38.20
2023-01-23T02:25:35.028Z,37.07
2023-01-23T02:28:03.121Z,39.03
2023-01-23T02:30:36.820Z,40.87
2023-01-23T02:33:31.884Z,40.37
2023-01-23T02:36:00.607Z,41.03
2023-01-23T02:38:37.816Z,41.03
2023-01-23T02:41:09.961Z,41.53
2023-01-23T02:43:38.364Z,42.27
2023-01-23T02:46:12.022Z,41.10
2023-01-23T02:48:44.410Z,43.80
2023-01-23T02:51:11.426Z,43.67
2023-01-23T02:53:39.478Z,45.03
2023-01-23T02:56:06.814Z,42.67
2023-01-23T02:58:53.030Z,44.13
2023-01-23T03:01:20.291Z,47.30
2023-01-23T03:03:47.316Z,44.60
2023-01-23T03:06:16.596Z,44.13
2023-01-23T03:08:49.477Z,43.27
2023-01-23T03:11:18.604Z,46.27
2023-01-23T03:13:46.886Z,44.87
2023-01-23T03:16:14.513Z,45.93
2023-01-23T03:18:53.407Z,43.47
2023-01-23T03:21:21.832Z,46.40
2023-01-23T03:23:48.824Z,42.00
2023-01-23T03:26:16.109Z,47.73
2023-01-23T03:29:02.985Z,45.30
2023-01-23T03:31:30.661Z,43.40
2023-01-23T03:33:58.597Z,48.07
2023-01-23T03:36:25.692Z,44.60
2023-01-23T03:39:12.385Z,46.23
2023-01-23T03:41:42.585Z,46.60
2023-01-23T03:44:09.635Z,44.33
2023-01-23T03:46:36.833Z,45.73
2023-01-23T03:49:06.194Z,44.47
2023-01-23T03:51:34.899Z,41.80
2023-01-23T03:54:01.892Z,42.20
2023-01-23T03:56:29.340Z,44.77
2023-01-23T03:58:57.883Z,43.23
2023-01-23T04:01:25.723Z,45.60
2023-01-23T04:03:52.689Z,42.53
2023-01-23T04:06:21.224Z,42.33
2023-01-23T04:08:49.057Z,40.83
2023-01-23T04:11:16.972Z,41.03
2023-01-23T04:13:44.084Z,43.17
2023-01-23T04:16:11.074Z,38.37
2023-01-23T04:18:38.947Z,40.93
2023-01-23T04:21:06.350Z,40.33
2023-01-23T04:23:33.538Z,40.63
2023-01-23T04:26:00.648Z,41.07
2023-01-23T04:28:29.030Z,40.90
2023-01-23T04:31:00.451Z,42.23
2023-01-23T04:33:31.488Z,40.40
2023-01-23T04:36:03.350Z,41.70
2023-01-23T04:38:31.649Z,39.97
2023-01-23T04:41:17.946Z,40.23
2023-01-23T04:43:45.623Z,41.27
2023-01-23T04:46:12.718Z,39.90
2023-01-23T04:49:09.027Z,40.90
2023-01-23T04:51:37.436Z,41.33
2023-01-23T04:54:05.011Z,44.23
2023-01-23T04:56:32.824Z,41.40
2023-01-23T04:59:03.214Z,43.53
2023-01-23T05:01:30.350Z,43.43
2023-01-23T05:04:01.495Z,43.93
2023-01-23T05:06:28.578Z,45.57
2023-01-23T05:08:57.570Z,45.37
2023-01-23T05:11:35.875Z,47.60
2023-01-23T05:14:03.432Z,47.87
2023-01-23T05:16:31.754Z,45.83
2023-01-23T05:19:17.109Z,48.10
2023-01-23T05:21:47.369Z,45.90
2023-01-23T05:24:17.844Z,45.53
2023-01-23T05:26:45.792Z,44.27
2023-01-23T05:29:13.555Z,39.27
2023-01-23T05:31:49.311Z,41.23
2023-01-23T05:34:48.748Z,41.60
2023-01-23T05:37:25.875Z,40.23
2023-01-23T05:39:56.853Z,43.40
2023-01-23T05:42:25.609Z,43.07
2023-01-23T05:45:12.590Z,43.40
2023-01-23T05:47:42.346Z,42.90
2023-01-23T05:50:15.840Z,42.30
2023-01-23T05:52:45.467Z,40.00
2023-01-23T05:55:13.249Z,42.20
2023-01-23T05:57:42.288Z,41.03
2023-01-23T06:00:17.112Z,39.37
2023-01-23T06:03:04.637Z,36.37
2023-01-23T06:05:46.316Z,35.20
2023-01-23T06:08:21.276Z,35.73
2023-01-23T06:10:49.765Z,32.90
2023-01-23T06:13:16.980Z,32.20
2023-01-23T06:15:44.023Z,31.27
2023-01-23T06:18:12.447Z,33.27
2023-01-23T06:20:39.387Z,30.13
2023-01-23T06:23:07.889Z,28.70
2023-01-23T06:25:37.033Z,27.67
2023-01-23T06:28:06.542Z,30.07
2023-01-23T06:30:35.235Z,32.93
2023-01-23T06:33:03.179Z,34.97
2023-01-23T06:35:35.491Z,35.60
2023-01-23T06:38:02.666Z,40.33
2023-01-23T06:40:30.422Z,40.00
2023-01-23T06:43:10.078Z,52.37
2023-01-23T06:45:37.620Z,59.97
2023-01-23T06:48:05.295Z,44.73
2023-01-23T06:50:32.521Z,39.00
2023-01-23T06:53:00.513Z,34.13
2023-01-23T06:55:28.598Z,33.23
2023-01-23T06:57:55.596Z,34.03
2023-01-23T07:00:23.682Z,34.00
2023-01-23T07:02:53.307Z,34.37
2023-01-23T07:05:20.592Z,33.43
2023-01-23T07:07:47.550Z,32.33
2023-01-23T07:10:14.714Z,32.37
2023-01-23T07:12:41.859Z,33.17
2023-01-23T07:15:10.544Z,29.70
2023-01-23T07:17:40.040Z,32.57
2023-01-23T07:20:07.739Z,34.47
2023-01-23T07:22:40.785Z,32.70
2023-01-23T07:25:08.442Z,44.43
2023-01-23T07:27:35.381Z,41.13
2023-01-23T07:30:02.442Z,35.53
2023-01-23T07:32:29.446Z,39.23
2023-01-23T07:34:56.497Z,34.73
2023-01-23T07:37:25.131Z,31.40
2023-01-23T07:39:55.139Z,34.73
2023-01-23T07:42:22.234Z,31.60
2023-01-23T07:44:49.347Z,29.10
2023-01-23T07:47:16.384Z,29.57
2023-01-23T07:49:43.439Z,27.20
2023-01-23T07:52:10.607Z,27.43
2023-01-23T07:54:37.619Z,27.67
2023-01-23T07:57:04.639Z,29.43
2023-01-23T07:59:31.701Z,28.63
2023-01-23T08:01:58.973Z,28.83
2023-01-23T08:04:26.699Z,28.67
2023-01-23T08:06:53.675Z,28.93
2023-01-23T08:09:20.704Z,30.93
2023-01-23T08:11:47.691Z,30.50
2023-01-23T08:14:14.725Z,32.97
2023-01-23T08:16:42.049Z,29.97
2023-01-23T08:19:09.220Z,32.97
2023-01-23T08:21:36.505Z,28.83
2023-01-23T08:24:04.937Z,29.93
2023-01-23T08:26:31.982Z,29.50
2023-01-23T08:29:00.246Z,32.20
2023-01-23T08:31:27.353Z,30.27
2023-01-23T08:33:55.110Z,29.87
2023-01-23T08:36:22.392Z,28.03
2023-01-23T08:38:50.785Z,30.57
2023-01-23T08:41:17.953Z,31.43
2023-01-23T08:43:46.232Z,28.30
2023-01-23T08:46:13.277Z,28.23
2023-01-23T08:48:41.960Z,28.73
2023-01-23T08:51:12.992Z,27.10
2023-01-23T08:53:40.503Z,29.23
2023-01-23T08:56:15.648Z,29.17
2023-01-23T08:58:44.359Z,35.40
2023-01-23T09:01:16.992Z,31.00
2023-01-23T09:03:44.679Z,27.50
2023-01-23T09:06:12.640Z,28.77
2023-01-23T09:08:39.743Z,30.93
2023-01-23T09:11:09.518Z,28.37
2023-01-23T09:13:37.939Z,28.53
2023-01-23T09:16:06.249Z,29.10
2023-01-23T09:18:35.029Z,30.07
2023-01-23T09:21:11.482Z,29.07
2023-01-23T09:23:38.916Z,29.93
2023-01-23T09:26:07.409Z,28.10
2023-01-23T09:28:36.506Z,29.73
2023-01-23T09:31:08.309Z,30.07
2023-01-23T09:33:36.812Z,26.90
2023-01-23T09:36:05.527Z,27.33
2023-01-23T09:38:34.466Z,26.13
2023-01-23T09:41:17.855Z,37.37
2023-01-23T09:43:58.711Z,37.33
2023-01-23T09:46:30.451Z,40.27
2023-01-23T09:49:10.478Z,41.43
2023-01-23T09:51:37.626Z,31.83
2023-01-23T09:54:29.571Z,27.90
2023-01-23T09:56:59.918Z,28.47
2023-01-23T09:59:58.129Z,25.93
2023-01-23T10:02:27.175Z,28.20
2023-01-23T10:04:56.197Z,24.83
2023-01-23T10:07:38.475Z,28.07
2023-01-23T10:10:17.846Z,24.90
2023-01-23T10:13:03.554Z,24.20
2023-01-23T10:15:36.534Z,24.93
2023-01-23T10:18:21.432Z,27.77
2023-01-23T10:21:03.715Z,25.80
2023-01-23T10:24:01.368Z,23.10
2023-01-23T10:26:36.653Z,27.17
2023-01-23T10:29:21.449Z,26.60
2023-01-23T10:31:56.446Z,27.07
2023-01-23T10:35:13.285Z,27.63
2023-01-23T10:37:45.604Z,31.27
2023-01-23T10:40:39.082Z,30.40
2023-01-23T10:43:18.905Z,29.43
2023-01-23T10:45:48.024Z,28.40
2023-01-23T10:48:48.482Z,27.00
2023-01-23T10:51:35.119Z,26.53
2023-01-23T10:54:30.835Z,26.17
2023-01-23T10:57:01.547Z,28.57
2023-01-23T10:59:44.722Z,27.27
2023-01-23T11:02:15.077Z,26.87
2023-01-23T11:04:45.439Z,28.80
2023-01-23T11:07:17.629Z,27.30
2023-01-23T11:09:56.698Z,30.93
2023-01-23T11:12:33.697Z,31.83
2023-01-23T11:15:22.798Z,34.53
2023-01-23T11:17:52.200Z,35.47
2023-01-23T11:20:25.635Z,33.50
2023-01-23T11:23:17.660Z,36.77
2023-01-23T11:25:51.834Z,31.30
2023-01-23T11:28:47.206Z,27.23
2023-01-23T11:31:21.542Z,31.63
2023-01-23T11:34:09.869Z,31.57
2023-01-23T11:37:00.118Z,29.90
2023-01-23T11:39:45.714Z,33.13
2023-01-23T11:42:13.808Z,28.77
2023-01-23T11:44:46.484Z,30.47
2023-01-23T11:47:19.509Z,32.87
2023-01-23T11:50:16.718Z,32.30
2023-01-23T11:53:10.659Z,29.87
2023-01-23T11:55:55.722Z,29.80
2023-01-23T11:58:49.567Z,30.37
2023-01-23T12:01:40.754Z,27.40
2023-01-23T12:04:54.089Z,28.97
2023-01-23T12:07:24.504Z,27.10
2023-01-23T12:10:10.327Z,28.73
2023-01-23T12:13:05.512Z,27.70
2023-01-23T12:15:49.991Z,28.63
2023-01-23T12:18:30.534Z,32.00
2023-01-23T12:21:14.557Z,28.20
2023-01-23T12:24:05.797Z,27.17
2023-01-23T12:26:35.586Z,25.37
2023-01-23T12:29:25.199Z,28.03
2023-01-23T12:32:20.218Z,28.57
2023-01-23T12:35:11.037Z,28.47
2023-01-23T12:38:05.382Z,26.50
2023-01-23T12:40:40.380Z,25.47
2023-01-23T12:43:34.583Z,27.20
2023-01-23T12:46:15.955Z,29.30
2023-01-23T12:48:56.320Z,27.13
2023-01-23T12:51:37.644Z,27.90
2023-01-23T12:54:11.824Z,30.10
2023-01-23T12:56:42.728Z,35.73
2023-01-23T12:59:42.563Z,37.40
2023-01-23T13:02:34.190Z,32.47
2023-01-23T13:05:16.514Z,30.70
2023-01-23T13:08:06.793Z,29.90
2023-01-23T13:11:33.881Z,30.53
2023-01-23T13:14:01.955Z,25.67
2023-01-23T13:16:31.101Z,29.07
2023-01-23T13:19:20.934Z,27.50
2023-01-23T13:22:04.526Z,27.37
2023-01-23T13:25:04.346Z,28.27
2023-01-23T13:27:45.444Z,28.87
2023-01-23T13:30:35.748Z,27.47
2023-01-23T13:33:09.955Z,35.13
2023-01-23T13:35:40.250Z,32.03
2023-01-23T13:38:22.239Z,27.80
2023-01-23T13:41:28.515Z,27.77
2023-01-23T13:44:05.216Z,28.33
2023-01-23T14:22:24.126Z,29.23
2023-01-23T14:24:55.054Z,28.93
2023-01-23T14:27:52.031Z,31.47
2023-01-23T14:30:27.542Z,27.97
2023-01-23T14:32:56.196Z,28.90
2023-01-23T14:35:28.998Z,28.83
2023-01-23T14:37:59.909Z,26.10
2023-01-23T14:40:31.753Z,31.03
2023-01-23T14:43:12.491Z,29.40
2023-01-23T14:45:40.006Z,26.40
2023-01-23T14:48:15.115Z,27.13
2023-01-23T14:50:43.012Z,26.33
2023-01-23T14:53:15.696Z,27.27
2023-01-23T14:55:49.754Z,26.93
2023-01-23T14:58:23.779Z,25.97
2023-01-23T15:00:52.291Z,28.63
2023-01-23T15:03:56.803Z,25.07
2023-01-23T15:06:24.317Z,23.50
2023-01-23T15:08:51.979Z,27.13
2023-01-23T15:11:27.411Z,25.40
2023-01-23T15:14:01.660Z,28.60
2023-01-23T15:16:38.196Z,25.53
2023-01-23T15:19:07.340Z,26.40
2023-01-23T15:21:39.969Z,26.97
2023-01-23T15:24:20.153Z,27.13
2023-01-23T15:27:06.741Z,26.83
2023-01-23T15:29:34.283Z,29.33
2023-01-23T15:32:02.181Z,28.80
2023-01-23T15:34:32.979Z,27.10
2023-01-23T15:37:20.754Z,28.77
2023-01-23T15:39:50.736Z,26.73
2023-01-23T15:42:17.764Z,24.93
2023-01-23T15:44:47.081Z,28.30
2023-01-23T15:47:14.469Z,25.90
2023-01-23T15:49:44.499Z,28.87
2023-01-23T15:52:20.501Z,28.40
2023-01-23T15:54:51.575Z,27.17
2023-01-23T15:57:19.577Z,28.93
2023-01-23T15:59:47.526Z,34.37
2023-01-23T16:02:29.987Z,47.47
2023-01-23T16:04:57.921Z,39.60
2023-01-23T16:07:47.455Z,33.83
2023-01-23T16:10:26.586Z,35.50
2023-01-23T16:12:55.484Z,28.47
2023-01-23T16:15:27.927Z,27.47
2023-01-23T16:17:58.379Z,27.27
2023-01-23T16:20:39.908Z,28.20
2023-01-23T16:23:19.544Z,27.60
2023-01-23T16:25:47.063Z,26.43
2023-01-23T16:28:16.550Z,27.77
2023-01-23T16:30:44.414Z,27.73
2023-01-23T16:33:11.649Z,28.83
2023-01-23T16:35:40.401Z,29.83
2023-01-23T16:38:07.770Z,29.17
2023-01-23T16:40:35.153Z,30.93
2023-01-23T16:43:03.164Z,27.43
2023-01-23T16:45:31.864Z,28.43
2023-01-23T16:47:59.548Z,27.73
2023-01-23T16:50:34.485Z,27.30
2023-01-23T16:53:22.805Z,27.23
2023-01-23T16:55:55.052Z,29.90
2023-01-23T16:58:26.944Z,27.33
2023-01-23T17:01:03.530Z,31.20
2023-01-23T17:03:36.606Z,29.93
2023-01-23T17:06:04.787Z,30.27
2023-01-23T17:08:32.316Z,25.83
2023-01-23T17:11:03.858Z,29.00
2023-01-23T17:13:34.052Z,26.40
2023-01-23T17:16:07.380Z,26.23
2023-01-23T17:18:40.305Z,26.25
2023-01-23T17:21:07.601Z,27.87
2023-01-23T17:23:35.884Z,28.90
2023-01-23T17:26:03.226Z,26.53
2023-01-23T17:28:30.903Z,26.80
2023-01-23T17:31:02.538Z,25.70
2023-01-23T17:33:32.054Z,25.00
2023-01-23T17:36:03.507Z,24.60
2023-01-23T17:38:31.521Z,26.47
2023-01-23T17:40:58.633Z,24.67
2023-01-23T17:43:26.475Z,24.67
2023-01-23T17:45:54.570Z,25.43
2023-01-23T17:48:31.041Z,26.77
2023-01-23T17:50:59.504Z,28.30
2023-01-23T17:53:28.233Z,28.03
2023-01-23T17:55:56.117Z,25.23
2023-01-23T17:58:23.699Z,24.53
2023-01-23T18:00:54.352Z,25.88
2023-01-23T18:03:23.243Z,23.30
2023-01-23T18:05:50.925Z,23.90
2023-01-23T18:08:33.632Z,24.30
2023-01-23T18:11:01.990Z,27.10
2023-01-23T18:13:41.477Z,25.10
2023-01-23T18:16:32.298Z,25.03
2023-01-23T18:19:17.881Z,24.20
2023-01-23T18:21:51.003Z,25.40
2023-01-23T18:24:30.613Z,25.67
2023-01-23T18:27:00.552Z,27.20
2023-01-23T18:30:04.774Z,26.30
2023-01-23T18:32:57.700Z,27.48
2023-01-23T18:35:49.888Z,26.30
2023-01-23T18:38:43.345Z,27.23
2023-01-23T18:41:28.371Z,24.90
2023-01-23T18:44:24.528Z,27.83
2023-01-23T18:46:54.987Z,26.00
2023-01-23T18:49:32.642Z,25.23
2023-01-23T18:52:13.389Z,24.07
2023-01-23T18:54:47.978Z,24.13
2023-01-23T18:57:33.863Z,21.87
2023-01-23T19:00:20.756Z,23.73
2023-01-23T19:02:55.950Z,27.27
2023-01-23T19:05:44.099Z,28.57
2023-01-23T19:08:41.443Z,27.93
2023-01-23T19:11:35.108Z,24.70
2023-01-23T19:14:31.856Z,24.57
2023-01-23T19:17:12.816Z,25.83
2023-01-23T19:20:14.123Z,24.73
2023-01-23T19:23:11.391Z,25.53
2023-01-23T19:25:40.170Z,25.57
2023-01-23T19:28:12.374Z,24.57
2023-01-23T19:30:40.786Z,22.87
2023-01-23T19:33:18.656Z,24.83
2023-01-23T19:35:48.601Z,24.17
2023-01-23T19:38:16.565Z,27.20
2023-01-23T19:40:47.470Z,26.43
2023-01-23T19:43:18.062Z,24.57
2023-01-23T19:45:46.053Z,24.63
2023-01-23T19:48:14.586Z,24.83
2023-01-23T19:50:44.340Z,23.73
2023-01-23T19:53:15.216Z,25.17
2023-01-23T19:55:44.404Z,24.93
2023-01-23T19:58:13.926Z,25.60
2023-01-23T20:00:42.661Z,26.37
2023-01-23T20:03:15.130Z,25.30
2023-01-23T20:05:43.725Z,24.33
2023-01-23T20:08:11.888Z,27.13
2023-01-23T20:10:41.142Z,25.27
2023-01-23T20:13:10.007Z,23.97
2023-01-23T20:15:39.931Z,24.80
2023-01-23T20:18:07.997Z,27.60
2023-01-23T20:20:36.794Z,26.40
2023-01-23T20:23:04.656Z,25.90
2023-01-23T20:25:33.030Z,27.70
2023-01-23T20:28:03.012Z,25.37
2023-01-23T20:30:32.907Z,25.87
2023-01-23T20:33:03.429Z,25.17
2023-01-23T20:35:32.437Z,28.13
2023-01-23T20:38:00.388Z,25.87
2023-01-23T20:40:28.616Z,26.57
2023-01-23T20:42:58.877Z,27.20
2023-01-23T20:45:27.156Z,26.47
2023-01-23T20:47:58.314Z,24.30
2023-01-23T20:50:26.532Z,25.20
2023-01-23T20:53:16.198Z,23.97
2023-01-23T20:55:44.100Z,24.90
2023-01-23T20:58:30.754Z,25.73
2023-01-23T21:00:58.418Z,27.00
2023-01-23T21:03:25.831Z,25.03
2023-01-23T21:05:54.715Z,27.23
2023-01-23T21:08:23.635Z,25.93
2023-01-23T21:10:53.523Z,24.60
2023-01-23T21:13:22.008Z,25.40
2023-01-23T21:16:00.589Z,26.83
2023-01-23T21:18:28.500Z,28.23
2023-01-23T21:20:56.062Z,29.03
2023-01-23T21:23:23.432Z,27.53
2023-01-23T21:25:53.225Z,26.57
2023-01-23T21:28:20.688Z,27.30
2023-01-23T21:30:47.906Z,28.47
2023-01-23T21:33:15.232Z,29.37
2023-01-23T21:35:42.456Z,29.70
2023-01-23T21:38:09.820Z,27.60
2023-01-23T21:40:36.790Z,27.17
2023-01-23T21:43:03.805Z,27.93
2023-01-23T21:45:30.707Z,26.73
2023-01-23T21:47:58.174Z,27.73
2023-01-23T21:50:25.402Z,28.73
2023-01-23T21:52:52.401Z,26.97
2023-01-23T21:55:19.475Z,26.50
2023-01-23T21:57:47.004Z,28.33
2023-01-23T22:00:32.769Z,26.73
2023-01-23T22:03:01.734Z,28.33
2023-01-23T22:05:28.960Z,28.37
2023-01-23T22:07:56.043Z,29.00
2023-01-23T22:10:24.298Z,30.63
2023-01-23T22:12:51.396Z,30.60
2023-01-23T22:15:20.020Z,31.47
2023-01-23T22:17:47.414Z,32.07
2023-01-23T22:20:14.484Z,31.47
2023-01-23T22:22:42.658Z,31.17
2023-01-23T22:25:10.761Z,30.57
2023-01-23T22:27:37.811Z,31.43
2023-01-23T22:30:06.084Z,31.57
2023-01-23T22:32:34.517Z,31.03
2023-01-23T22:35:01.413Z,31.43
2023-01-23T22:37:30.756Z,30.70
2023-01-23T22:39:57.723Z,28.57
2023-01-23T22:42:24.878Z,29.93
2023-01-23T22:44:51.858Z,27.13
2023-01-23T22:47:21.852Z,30.60
2023-01-23T22:49:48.799Z,27.43
2023-01-23T22:52:15.919Z,29.37
2023-01-23T22:54:42.916Z,27.80
2023-01-23T22:57:10.118Z,27.33
2023-01-23T22:59:38.510Z,28.93
2023-01-23T23:02:05.480Z,28.30
2023-01-23T23:04:33.391Z,27.80
2023-01-23T23:07:01.851Z,28.37
2023-01-23T23:09:28.960Z,27.57
2023-01-23T23:11:57.379Z,26.93
2023-01-23T23:14:24.376Z,26.57
2023-01-23T23:16:52.460Z,25.87
2023-01-23T23:19:19.372Z,27.87
2023-01-23T23:21:47.461Z,26.73
2023-01-23T23:24:14.628Z,27.80
2023-01-23T23:26:42.689Z,24.80
2023-01-23T23:29:10.787Z,29.37
2023-01-23T23:31:37.994Z,27.77
2023-01-23T23:34:05.429Z,26.20
2023-01-23T23:36:33.457Z,27.17
2023-01-23T23:39:01.826Z,28.47
2023-01-23T23:41:29.024Z,27.83
2023-01-23T23:43:55.951Z,26.07
2023-01-23T23:46:23.365Z,26.90
2023-01-23T23:48:50.337Z,29.77
2023-01-23T23:51:18.945Z,26.73
2023-01-23T23:53:46.697Z,28.80
2023-01-23T23:56:28.179Z,26.10
2023-01-23T23:58:56.139Z,27.80
